createdAt,value
2019-03-12T18:19:56.894Z,10.30
2019-03-12T18:22:29.667Z,12.67
2019-03-12T18:25:56.461Z,8.17
2019-03-12T18:28:29.579Z,11.03
2019-03-12T18:31:26.256Z,13.53
2019-03-12T18:33:52.751Z,9.23
2019-03-12T18:36:30.232Z,13.23
2019-03-12T18:39:06.159Z,8.03
2019-03-12T18:41:38.555Z,10.07
2019-03-12T18:44:10.099Z,11.43
2019-03-12T18:46:44.988Z,8.40
2019-03-12T18:49:13.385Z,15.80
2019-03-12T18:51:43.245Z,17.77
2019-03-12T18:54:09.583Z,14.90
2019-03-12T18:56:51.663Z,15.20
2019-03-12T18:59:28.928Z,18.00
2019-03-12T19:01:58.450Z,10.47
2019-03-12T19:04:31.109Z,12.43
2019-03-12T19:07:01.743Z,16.13
2019-03-12T19:09:28.313Z,13.93
2019-03-12T19:12:01.707Z,13.30
2019-03-12T19:14:35.255Z,5.83
2019-03-12T19:17:04.354Z,5.33
2019-03-12T19:19:34.054Z,5.97
2019-03-12T19:22:07.111Z,5.57
2019-03-12T19:24:34.470Z,8.23
2019-03-12T19:27:07.144Z,5.80
2019-03-12T19:29:38.364Z,8.43
2019-03-12T19:32:25.288Z,9.80
2019-03-12T19:35:30.066Z,9.83
2019-03-12T19:37:57.943Z,8.27
2019-03-12T19:40:59.699Z,11.00
2019-03-12T19:43:36.556Z,11.43
2019-03-12T19:46:18.779Z,10.47
2019-03-12T19:48:49.602Z,8.97
2019-03-12T19:51:24.102Z,9.50
2019-03-12T19:53:50.365Z,8.97
2019-03-12T19:56:16.804Z,6.73
2019-03-12T19:58:52.283Z,8.83
2019-03-12T20:01:19.021Z,8.93
2019-03-12T20:03:57.365Z,6.37
2019-03-12T20:06:48.777Z,9.07
2019-03-12T20:09:26.338Z,7.83
2019-03-12T20:11:56.416Z,10.17
2019-03-12T20:14:57.892Z,9.63
2019-03-12T20:18:01.767Z,6.33
2019-03-12T20:20:59.872Z,10.40
2019-03-12T20:24:02.187Z,6.60
2019-03-12T20:30:18.994Z,10.20
2019-03-12T20:33:37.989Z,7.03
2019-03-12T20:36:33.980Z,9.43
2019-03-12T20:39:26.914Z,9.90
2019-03-12T20:42:32.941Z,10.57
2019-03-12T20:45:24.215Z,12.13
2019-03-12T20:48:21.912Z,10.10
2019-03-12T20:51:22.469Z,11.53
2019-03-12T20:54:08.312Z,14.13
2019-03-12T20:57:12.060Z,13.93
2019-03-12T20:59:58.880Z,12.40
2019-03-12T21:02:45.701Z,15.03
2019-03-12T21:05:49.458Z,13.67
2019-03-12T21:08:45.933Z,16.10
2019-03-12T21:11:35.613Z,13.53
2019-03-12T21:14:34.721Z,11.33
2019-03-12T21:17:13.167Z,11.60
2019-03-12T21:19:55.394Z,12.43
2019-03-12T21:22:40.268Z,12.90
2019-03-12T21:25:13.216Z,10.20
2019-03-12T21:28:05.718Z,8.67
2019-03-12T21:30:32.060Z,8.67
2019-03-12T21:33:14.755Z,9.13
2019-03-12T21:35:32.622Z,8.40
2019-03-12T21:37:58.895Z,8.73
2019-03-12T21:40:25.169Z,7.57
2019-03-12T21:42:51.600Z,7.37
2019-03-12T21:45:20.934Z,7.17
2019-03-12T21:47:47.231Z,5.50
2019-03-12T21:50:13.532Z,7.83
2019-03-12T21:52:39.798Z,7.30
2019-03-12T21:55:09.908Z,6.03
2019-03-12T21:57:39.437Z,5.10
2019-03-12T22:00:12.055Z,5.23
2019-03-12T22:02:38.334Z,5.67
2019-03-12T22:05:04.720Z,5.07
2019-03-12T22:07:31.007Z,5.73
2019-03-12T22:09:57.301Z,7.33
2019-03-12T22:12:23.583Z,9.53
2019-03-12T22:14:49.878Z,8.17
2019-03-12T22:17:19.197Z,7.37
2019-03-12T22:19:45.482Z,7.90
2019-03-12T22:22:13.727Z,7.23
2019-03-12T22:24:40.123Z,7.37
2019-03-12T22:27:06.407Z,7.87
2019-03-12T22:29:32.720Z,6.87
2019-03-12T22:31:59.094Z,7.27
2019-03-12T22:34:25.371Z,7.90
2019-03-12T22:36:51.697Z,9.73
2019-03-12T22:39:18.003Z,8.13
2019-03-12T22:41:44.335Z,8.73
2019-03-12T22:44:10.705Z,5.53
2019-03-12T22:46:37.019Z,8.57
2019-03-12T22:49:03.346Z,6.00
2019-03-12T22:51:29.619Z,9.90
2019-03-12T22:53:55.907Z,8.17
2019-03-12T22:56:22.292Z,6.50
2019-03-12T22:58:48.589Z,8.87
2019-03-12T23:01:14.891Z,10.67
2019-03-12T23:03:41.214Z,6.13
2019-03-12T23:06:08.580Z,9.87
2019-03-12T23:08:34.893Z,6.37
2019-03-12T23:11:01.211Z,10.07
2019-03-12T23:13:30.546Z,7.73
2019-03-12T23:15:56.841Z,7.10
2019-03-12T23:18:23.127Z,11.17
2019-03-12T23:20:49.461Z,10.03
2019-03-12T23:23:15.818Z,6.70
2019-03-12T23:25:42.199Z,10.77
2019-03-12T23:28:08.493Z,10.93
2019-03-12T23:30:34.799Z,9.40
2019-03-12T23:33:01.057Z,10.23
2019-03-12T23:35:27.331Z,7.10
2019-03-12T23:37:53.759Z,11.03
2019-03-12T23:40:20.041Z,9.43
2019-03-12T23:42:46.361Z,11.70
2019-03-12T23:45:15.147Z,11.20
2019-03-12T23:47:41.488Z,12.53
2019-03-12T23:50:12.102Z,14.80
2019-03-12T23:52:38.418Z,7.43
2019-03-12T23:55:07.097Z,12.90
2019-03-12T23:57:33.421Z,14.67
2019-03-12T23:59:59.741Z,12.37
